Terminal Aerodrome Forecast
Issued by NWS Caribou, ME

Home | Current Version | Previous Version | Text Only | Print | Product List | Glossary On
Versions: 1 2 3 4 5 6 7 8 9 10 11 12 13 14
000
FTUS41 KCAR 021823 AAA
TAFCAR
TAF AMD
KCAR 021823Z 0218/0318 30010G20KT 3SM -SN SCT025 BKN035
     FM022000 30013G26KT 1 1/2SM -SN OVC025
     FM030000 30020G30KT 4SM -SN SCT025 BKN040
     FM030300 31015G25KT P6SM SCT100
     FM031100 31012KT P6SM FEW250=

USA.gov is the U.S. government's official web portal to all federal, state and local government web resources and services.